Key West Naval Air Station, Florida
Current Conditions -  °F | °C
As of 8:53 PM on Monday 24 Nov 2014 (Local Time) from KNQX Reporting Station
Broken Clouds Broken Clouds  
Wind Chill: 78°   Ceiling: 18000
Heat Index: 81°   Visibility: 10mi
Dew Point: 77°   Wind: 10mph
Humidity: 96%   Direction: 130°SE
Pressure: 30.01"   Gusts: NA
Location:  24.5796°N, 81.6849°W
Report Text: KNQX 250153Z 13009KT 10SM FEW045 SCT100 BKN180 26/25 A3001 RMK AO2 SLP161 T02560250 $
Loading
Personal Weather Stations






























Interactive Weather Map New forecast layout! Learn more

10-Day Weather Forecast

Advertisements
Track Severe Weather on mobile